sensor_id;sensor_type;location;lat;lon;timestamp;P1;durP1;ratioP1;P2;durP2;ratioP2
38693;SDS011;24447;43.460;25.744;2022-07-09T00:00:34;8.85;;;3.33;;
38693;SDS011;24447;43.460;25.744;2022-07-09T00:03:00;12.25;;;3.65;;
38693;SDS011;24447;43.460;25.744;2022-07-09T00:05:26;4.75;;;3.40;;
38693;SDS011;24447;43.460;25.744;2022-07-09T00:07:52;7.35;;;3.65;;
38693;SDS011;24447;43.460;25.744;2022-07-09T00:10:18;8.35;;;3.60;;
38693;SDS011;24447;43.460;25.744;2022-07-09T00:12:44;7.93;;;4.13;;
38693;SDS011;24447;43.460;25.744;2022-07-09T00:15:10;6.03;;;3.45;;
38693;SDS011;24447;43.460;25.744;2022-07-09T00:17:36;7.43;;;3.58;;
38693;SDS011;24447;43.460;25.744;2022-07-09T00:20:03;8.50;;;3.92;;
38693;SDS011;24447;43.460;25.744;2022-07-09T00:22:33;5.90;;;3.70;;
38693;SDS011;24447;43.460;25.744;2022-07-09T00:25:00;10.95;;;4.00;;
38693;SDS011;24447;43.460;25.744;2022-07-09T00:27:26;7.85;;;3.88;;
38693;SDS011;24447;43.460;25.744;2022-07-09T00:29:52;5.88;;;3.80;;
38693;SDS011;24447;43.460;25.744;2022-07-09T00:32:18;7.53;;;3.78;;
38693;SDS011;24447;43.460;25.744;2022-07-09T00:34:44;5.57;;;3.95;;
38693;SDS011;24447;43.460;25.744;2022-07-09T00:37:11;4.78;;;3.58;;
38693;SDS011;24447;43.460;25.744;2022-07-09T00:39:37;8.18;;;3.85;;
38693;SDS011;24447;43.460;25.744;2022-07-09T00:42:08;5.38;;;3.35;;
38693;SDS011;24447;43.460;25.744;2022-07-09T00:44:35;5.22;;;3.63;;
38693;SDS011;24447;43.460;25.744;2022-07-09T00:47:01;5.80;;;3.72;;
38693;SDS011;24447;43.460;25.744;2022-07-09T00:49:30;6.13;;;3.55;;
38693;SDS011;24447;43.460;25.744;2022-07-09T00:51:57;5.82;;;3.83;;
38693;SDS011;24447;43.460;25.744;2022-07-09T00:54:24;7.32;;;3.85;;
38693;SDS011;24447;43.460;25.744;2022-07-09T00:56:51;11.40;;;4.00;;
38693;SDS011;24447;43.460;25.744;2022-07-09T00:59:18;7.22;;;3.50;;
38693;SDS011;24447;43.460;25.744;2022-07-09T01:01:45;6.68;;;3.60;;
38693;SDS011;24447;43.460;25.744;2022-07-09T01:04:11;9.25;;;3.53;;
38693;SDS011;24447;43.460;25.744;2022-07-09T01:06:37;9.38;;;4.15;;
38693;SDS011;24447;43.460;25.744;2022-07-09T01:09:03;6.03;;;3.83;;
38693;SDS011;24447;43.460;25.744;2022-07-09T01:11:29;10.68;;;3.88;;
38693;SDS011;24447;43.460;25.744;2022-07-09T01:13:56;9.20;;;4.57;;
38693;SDS011;24447;43.460;25.744;2022-07-09T01:16:29;9.43;;;4.10;;
38693;SDS011;24447;43.460;25.744;2022-07-09T01:18:56;9.60;;;3.78;;
38693;SDS011;24447;43.460;25.744;2022-07-09T01:21:22;10.88;;;3.78;;
38693;SDS011;24447;43.460;25.744;2022-07-09T01:23:49;10.90;;;4.07;;
38693;SDS011;24447;43.460;25.744;2022-07-09T01:26:15;8.30;;;3.90;;
38693;SDS011;24447;43.460;25.744;2022-07-09T01:28:41;9.57;;;4.50;;
38693;SDS011;24447;43.460;25.744;2022-07-09T01:31:07;9.50;;;4.00;;
38693;SDS011;24447;43.460;25.744;2022-07-09T01:33:33;6.57;;;4.20;;
38693;SDS011;24447;43.460;25.744;2022-07-09T01:35:59;8.70;;;4.15;;
38693;SDS011;24447;43.460;25.744;2022-07-09T01:38:25;9.93;;;4.72;;
38693;SDS011;24447;43.460;25.744;2022-07-09T01:40:51;11.10;;;4.22;;
38693;SDS011;24447;43.460;25.744;2022-07-09T01:43:17;6.63;;;4.07;;
38693;SDS011;24447;43.460;25.744;2022-07-09T01:45:43;6.53;;;4.07;;
38693;SDS011;24447;43.460;25.744;2022-07-09T01:48:09;6.63;;;4.47;;
38693;SDS011;24447;43.460;25.744;2022-07-09T01:50:35;10.85;;;4.45;;
38693;SDS011;24447;43.460;25.744;2022-07-09T01:53:01;9.02;;;4.78;;
38693;SDS011;24447;43.460;25.744;2022-07-09T01:55:27;5.82;;;4.20;;
38693;SDS011;24447;43.460;25.744;2022-07-09T01:57:53;5.75;;;4.60;;
38693;SDS011;24447;43.460;25.744;2022-07-09T02:00:19;7.32;;;4.47;;
38693;SDS011;24447;43.460;25.744;2022-07-09T02:02:45;12.48;;;4.80;;
38693;SDS011;24447;43.460;25.744;2022-07-09T02:05:11;8.27;;;4.40;;
38693;SDS011;24447;43.460;25.744;2022-07-09T02:07:37;10.52;;;4.75;;
38693;SDS011;24447;43.460;25.744;2022-07-09T02:10:03;8.98;;;4.47;;
38693;SDS011;24447;43.460;25.744;2022-07-09T02:12:29;10.82;;;4.60;;
38693;SDS011;24447;43.460;25.744;2022-07-09T02:14:55;7.72;;;4.07;;
38693;SDS011;24447;43.460;25.744;2022-07-09T02:17:21;10.27;;;4.95;;
38693;SDS011;24447;43.460;25.744;2022-07-09T02:19:47;9.60;;;4.50;;
38693;SDS011;24447;43.460;25.744;2022-07-09T02:22:13;10.05;;;4.40;;
38693;SDS011;24447;43.460;25.744;2022-07-09T02:24:39;10.85;;;5.47;;
38693;SDS011;24447;43.460;25.744;2022-07-09T02:27:05;10.45;;;4.82;;
38693;SDS011;24447;43.460;25.744;2022-07-09T02:29:31;11.73;;;5.28;;
38693;SDS011;24447;43.460;25.744;2022-07-09T02:31:57;7.03;;;4.70;;
38693;SDS011;24447;43.460;25.744;2022-07-09T02:34:23;7.63;;;4.70;;
38693;SDS011;24447;43.460;25.744;2022-07-09T02:36:50;9.25;;;4.40;;
38693;SDS011;24447;43.460;25.744;2022-07-09T02:39:16;7.05;;;4.38;;
38693;SDS011;24447;43.460;25.744;2022-07-09T02:41:42;12.63;;;5.05;;
38693;SDS011;24447;43.460;25.744;2022-07-09T02:44:09;12.18;;;4.72;;
38693;SDS011;24447;43.460;25.744;2022-07-09T02:46:35;12.98;;;4.60;;
38693;SDS011;24447;43.460;25.744;2022-07-09T02:49:00;11.98;;;5.82;;
38693;SDS011;24447;43.460;25.744;2022-07-09T02:51:27;11.32;;;5.30;;
38693;SDS011;24447;43.460;25.744;2022-07-09T02:53:53;10.85;;;5.00;;
38693;SDS011;24447;43.460;25.744;2022-07-09T02:56:19;9.50;;;4.95;;
38693;SDS011;24447;43.460;25.744;2022-07-09T02:58:45;10.02;;;4.85;;
38693;SDS011;24447;43.460;25.744;2022-07-09T03:01:11;8.40;;;5.03;;
38693;SDS011;24447;43.460;25.744;2022-07-09T03:03:37;9.68;;;5.47;;
38693;SDS011;24447;43.460;25.744;2022-07-09T03:06:03;10.65;;;5.13;;
38693;SDS011;24447;43.460;25.744;2022-07-09T03:08:31;10.35;;;5.15;;
38693;SDS011;24447;43.460;25.744;2022-07-09T03:10:56;9.40;;;5.88;;
38693;SDS011;24447;43.460;25.744;2022-07-09T03:13:22;9.35;;;5.43;;
38693;SDS011;24447;43.460;25.744;2022-07-09T03:15:49;10.40;;;5.22;;
38693;SDS011;24447;43.460;25.744;2022-07-09T03:18:15;14.73;;;5.32;;
38693;SDS011;24447;43.460;25.744;2022-07-09T03:20:40;12.05;;;5.45;;
38693;SDS011;24447;43.460;25.744;2022-07-09T03:23:06;9.20;;;5.00;;
38693;SDS011;24447;43.460;25.744;2022-07-09T03:25:32;11.30;;;5.43;;
38693;SDS011;24447;43.460;25.744;2022-07-09T03:27:59;11.27;;;5.15;;
38693;SDS011;24447;43.460;25.744;2022-07-09T03:30:25;9.57;;;5.20;;
38693;SDS011;24447;43.460;25.744;2022-07-09T03:32:51;9.77;;;5.38;;
38693;SDS011;24447;43.460;25.744;2022-07-09T03:35:17;10.32;;;5.40;;
38693;SDS011;24447;43.460;25.744;2022-07-09T03:37:43;17.95;;;6.57;;
38693;SDS011;24447;43.460;25.744;2022-07-09T03:40:09;11.85;;;6.03;;
38693;SDS011;24447;43.460;25.744;2022-07-09T03:42:35;12.43;;;5.43;;
38693;SDS011;24447;43.460;25.744;2022-07-09T03:45:01;13.77;;;6.25;;
38693;SDS011;24447;43.460;25.744;2022-07-09T03:47:27;13.65;;;6.22;;
38693;SDS011;24447;43.460;25.744;2022-07-09T03:49:53;20.27;;;7.47;;
38693;SDS011;24447;43.460;25.744;2022-07-09T03:52:19;19.88;;;8.27;;
38693;SDS011;24447;43.460;25.744;2022-07-09T03:54:45;18.63;;;6.47;;
38693;SDS011;24447;43.460;25.744;2022-07-09T03:57:11;17.75;;;7.05;;
38693;SDS011;24447;43.460;25.744;2022-07-09T03:59:36;17.73;;;6.97;;
38693;SDS011;24447;43.460;25.744;2022-07-09T04:02:03;9.13;;;5.18;;
38693;SDS011;24447;43.460;25.744;2022-07-09T04:04:30;12.90;;;5.65;;
38693;SDS011;24447;43.460;25.744;2022-07-09T04:06:56;13.57;;;6.20;;
38693;SDS011;24447;43.460;25.744;2022-07-09T04:09:22;15.52;;;5.40;;
38693;SDS011;24447;43.460;25.744;2022-07-09T04:11:48;8.98;;;5.32;;
38693;SDS011;24447;43.460;25.744;2022-07-09T04:14:14;8.93;;;4.43;;
38693;SDS011;24447;43.460;25.744;2022-07-09T04:16:40;10.52;;;4.80;;
38693;SDS011;24447;43.460;25.744;2022-07-09T04:19:06;12.25;;;4.50;;
38693;SDS011;24447;43.460;25.744;2022-07-09T04:21:33;9.20;;;5.22;;
38693;SDS011;24447;43.460;25.744;2022-07-09T04:23:59;7.55;;;4.35;;
38693;SDS011;24447;43.460;25.744;2022-07-09T04:26:25;9.18;;;4.75;;
38693;SDS011;24447;43.460;25.744;2022-07-09T04:28:51;9.05;;;4.82;;
38693;SDS011;24447;43.460;25.744;2022-07-09T04:31:17;10.23;;;4.57;;
38693;SDS011;24447;43.460;25.744;2022-07-09T04:33:44;9.98;;;4.50;;
38693;SDS011;24447;43.460;25.744;2022-07-09T04:36:10;8.07;;;4.78;;
38693;SDS011;24447;43.460;25.744;2022-07-09T04:38:36;13.30;;;4.93;;
38693;SDS011;24447;43.460;25.744;2022-07-09T04:41:03;8.82;;;4.72;;
38693;SDS011;24447;43.460;25.744;2022-07-09T04:43:29;12.77;;;5.63;;
38693;SDS011;24447;43.460;25.744;2022-07-09T04:57:13;11.10;;;5.57;;
38693;SDS011;24447;43.460;25.744;2022-07-09T04:59:39;14.55;;;5.50;;
38693;SDS011;24447;43.460;25.744;2022-07-09T05:02:05;10.90;;;6.53;;
38693;SDS011;24447;43.460;25.744;2022-07-09T05:04:31;9.85;;;5.85;;
38693;SDS011;24447;43.460;25.744;2022-07-09T05:06:57;11.75;;;5.97;;
38693;SDS011;24447;43.460;25.744;2022-07-09T05:09:23;10.05;;;5.60;;
38693;SDS011;24447;43.460;25.744;2022-07-09T05:11:49;12.77;;;7.05;;
38693;SDS011;24447;43.460;25.744;2022-07-09T05:14:15;7.63;;;4.80;;
38693;SDS011;24447;43.460;25.744;2022-07-09T05:16:41;12.30;;;5.50;;
38693;SDS011;24447;43.460;25.744;2022-07-09T05:19:12;9.40;;;4.82;;
38693;SDS011;24447;43.460;25.744;2022-07-09T05:21:39;10.80;;;4.90;;
38693;SDS011;24447;43.460;25.744;2022-07-09T05:24:06;22.33;;;5.25;;
38693;SDS011;24447;43.460;25.744;2022-07-09T05:26:33;10.82;;;5.13;;
38693;SDS011;24447;43.460;25.744;2022-07-09T05:29:00;11.13;;;5.43;;
38693;SDS011;24447;43.460;25.744;2022-07-09T05:31:27;9.05;;;5.47;;
38693;SDS011;24447;43.460;25.744;2022-07-09T05:33:53;9.65;;;5.38;;
38693;SDS011;24447;43.460;25.744;2022-07-09T05:36:19;16.05;;;5.90;;
38693;SDS011;24447;43.460;25.744;2022-07-09T05:38:45;12.98;;;4.88;;
38693;SDS011;24447;43.460;25.744;2022-07-09T05:41:12;12.80;;;6.20;;
38693;SDS011;24447;43.460;25.744;2022-07-09T05:43:39;13.15;;;5.75;;
38693;SDS011;24447;43.460;25.744;2022-07-09T05:46:05;16.80;;;6.25;;
38693;SDS011;24447;43.460;25.744;2022-07-09T05:48:31;10.50;;;6.10;;
38693;SDS011;24447;43.460;25.744;2022-07-09T05:50:57;10.45;;;5.32;;
38693;SDS011;24447;43.460;25.744;2022-07-09T05:53:23;11.27;;;4.93;;
38693;SDS011;24447;43.460;25.744;2022-07-09T05:55:49;10.07;;;5.60;;
38693;SDS011;24447;43.460;25.744;2022-07-09T05:58:15;12.70;;;5.45;;
38693;SDS011;24447;43.460;25.744;2022-07-09T06:00:41;12.73;;;6.00;;
38693;SDS011;24447;43.460;25.744;2022-07-09T06:03:07;12.95;;;5.70;;
38693;SDS011;24447;43.460;25.744;2022-07-09T06:05:33;12.95;;;5.95;;
38693;SDS011;24447;43.460;25.744;2022-07-09T06:07:59;9.05;;;4.95;;
38693;SDS011;24447;43.460;25.744;2022-07-09T06:10:25;7.80;;;5.20;;
38693;SDS011;24447;43.460;25.744;2022-07-09T06:12:51;6.65;;;4.93;;
38693;SDS011;24447;43.460;25.744;2022-07-09T06:15:17;10.25;;;5.43;;
38693;SDS011;24447;43.460;25.744;2022-07-09T06:17:43;18.10;;;5.40;;
38693;SDS011;24447;43.460;25.744;2022-07-09T06:20:10;10.85;;;5.25;;
38693;SDS011;24447;43.460;25.744;2022-07-09T06:22:36;8.77;;;4.90;;
38693;SDS011;24447;43.460;25.744;2022-07-09T06:25:03;10.40;;;4.82;;
38693;SDS011;24447;43.460;25.744;2022-07-09T06:27:30;8.52;;;5.15;;
38693;SDS011;24447;43.460;25.744;2022-07-09T06:29:56;14.05;;;5.57;;
38693;SDS011;24447;43.460;25.744;2022-07-09T06:32:22;11.50;;;5.57;;
38693;SDS011;24447;43.460;25.744;2022-07-09T06:34:48;8.90;;;4.38;;
38693;SDS011;24447;43.460;25.744;2022-07-09T06:37:14;9.93;;;3.72;;
38693;SDS011;24447;43.460;25.744;2022-07-09T06:39:40;6.63;;;4.60;;
38693;SDS011;24447;43.460;25.744;2022-07-09T06:42:18;9.13;;;4.07;;
38693;SDS011;24447;43.460;25.744;2022-07-09T06:44:44;8.33;;;4.90;;
38693;SDS011;24447;43.460;25.744;2022-07-09T06:47:10;9.15;;;4.47;;
38693;SDS011;24447;43.460;25.744;2022-07-09T06:49:37;6.38;;;3.60;;
38693;SDS011;24447;43.460;25.744;2022-07-09T06:52:03;9.45;;;4.93;;
38693;SDS011;24447;43.460;25.744;2022-07-09T06:54:30;11.30;;;4.65;;
38693;SDS011;24447;43.460;25.744;2022-07-09T06:56:56;6.50;;;4.03;;
38693;SDS011;24447;43.460;25.744;2022-07-09T06:59:22;8.63;;;3.50;;
38693;SDS011;24447;43.460;25.744;2022-07-09T07:01:49;6.32;;;3.42;;
38693;SDS011;24447;43.460;25.744;2022-07-09T07:04:15;6.18;;;3.60;;
38693;SDS011;24447;43.460;25.744;2022-07-09T07:06:41;9.18;;;3.65;;
38693;SDS011;24447;43.460;25.744;2022-07-09T07:09:07;7.50;;;3.80;;
38693;SDS011;24447;43.460;25.744;2022-07-09T07:11:34;7.05;;;3.42;;
38693;SDS011;24447;43.460;25.744;2022-07-09T07:14:00;4.90;;;3.30;;
38693;SDS011;24447;43.460;25.744;2022-07-09T07:16:26;6.97;;;3.58;;
38693;SDS011;24447;43.460;25.744;2022-07-09T07:18:52;9.55;;;3.58;;
38693;SDS011;24447;43.460;25.744;2022-07-09T07:21:18;9.07;;;3.75;;
38693;SDS011;24447;43.460;25.744;2022-07-09T07:23:44;8.68;;;4.10;;
38693;SDS011;24447;43.460;25.744;2022-07-09T07:26:10;7.68;;;2.95;;
38693;SDS011;24447;43.460;25.744;2022-07-09T07:28:36;7.47;;;3.08;;
38693;SDS011;24447;43.460;25.744;2022-07-09T07:31:02;4.03;;;2.30;;
38693;SDS011;24447;43.460;25.744;2022-07-09T07:33:28;5.53;;;2.25;;
38693;SDS011;24447;43.460;25.744;2022-07-09T07:35:54;3.33;;;2.28;;
38693;SDS011;24447;43.460;25.744;2022-07-09T07:38:19;4.85;;;2.40;;
38693;SDS011;24447;43.460;25.744;2022-07-09T07:40:45;5.88;;;2.47;;
38693;SDS011;24447;43.460;25.744;2022-07-09T07:43:11;6.00;;;2.63;;
38693;SDS011;24447;43.460;25.744;2022-07-09T07:45:38;4.50;;;2.00;;
38693;SDS011;24447;43.460;25.744;2022-07-09T07:48:04;8.23;;;2.20;;
38693;SDS011;24447;43.460;25.744;2022-07-09T07:50:30;8.38;;;3.15;;
38693;SDS011;24447;43.460;25.744;2022-07-09T07:52:57;6.80;;;2.55;;
38693;SDS011;24447;43.460;25.744;2022-07-09T07:55:24;3.72;;;2.97;;
38693;SDS011;24447;43.460;25.744;2022-07-09T07:57:50;8.50;;;2.65;;
38693;SDS011;24447;43.460;25.744;2022-07-09T08:00:15;7.75;;;2.67;;
38693;SDS011;24447;43.460;25.744;2022-07-09T08:02:41;4.78;;;2.42;;
38693;SDS011;24447;43.460;25.744;2022-07-09T08:05:07;6.95;;;2.28;;
38693;SDS011;24447;43.460;25.744;2022-07-09T08:07:34;5.50;;;1.90;;
38693;SDS011;24447;43.460;25.744;2022-07-09T08:09:59;2.60;;;2.35;;
38693;SDS011;24447;43.460;25.744;2022-07-09T08:12:25;10.05;;;2.60;;
38693;SDS011;24447;43.460;25.744;2022-07-09T08:14:51;6.32;;;2.63;;
38693;SDS011;24447;43.460;25.744;2022-07-09T08:17:17;7.68;;;2.70;;
38693;SDS011;24447;43.460;25.744;2022-07-09T08:19:43;6.18;;;2.60;;
38693;SDS011;24447;43.460;25.744;2022-07-09T08:22:09;9.25;;;2.63;;
38693;SDS011;24447;43.460;25.744;2022-07-09T08:24:35;6.70;;;2.97;;
38693;SDS011;24447;43.460;25.744;2022-07-09T08:27:01;3.92;;;2.17;;
38693;SDS011;24447;43.460;25.744;2022-07-09T08:29:27;6.00;;;3.42;;
38693;SDS011;24447;43.460;25.744;2022-07-09T08:31:53;2.95;;;2.22;;
38693;SDS011;24447;43.460;25.744;2022-07-09T08:34:19;6.28;;;2.15;;
38693;SDS011;24447;43.460;25.744;2022-07-09T08:36:45;4.50;;;2.35;;
38693;SDS011;24447;43.460;25.744;2022-07-09T08:39:11;2.63;;;2.28;;
38693;SDS011;24447;43.460;25.744;2022-07-09T08:41:37;5.07;;;2.65;;
38693;SDS011;24447;43.460;25.744;2022-07-09T08:44:03;2.60;;;2.20;;
38693;SDS011;24447;43.460;25.744;2022-07-09T08:46:33;2.13;;;1.70;;
38693;SDS011;24447;43.460;25.744;2022-07-09T08:48:59;4.80;;;2.30;;
38693;SDS011;24447;43.460;25.744;2022-07-09T08:51:25;3.85;;;2.10;;
38693;SDS011;24447;43.460;25.744;2022-07-09T08:53:52;4.63;;;2.20;;
38693;SDS011;24447;43.460;25.744;2022-07-09T08:56:22;2.63;;;1.88;;
38693;SDS011;24447;43.460;25.744;2022-07-09T08:58:48;7.03;;;2.80;;
38693;SDS011;24447;43.460;25.744;2022-07-09T09:01:14;3.08;;;2.17;;
38693;SDS011;24447;43.460;25.744;2022-07-09T09:03:42;4.57;;;2.50;;
38693;SDS011;24447;43.460;25.744;2022-07-09T09:06:09;2.42;;;2.17;;
38693;SDS011;24447;43.460;25.744;2022-07-09T09:08:36;4.60;;;2.03;;
38693;SDS011;24447;43.460;25.744;2022-07-09T09:11:08;12.82;;;2.78;;
38693;SDS011;24447;43.460;25.744;2022-07-09T09:13:41;5.97;;;2.00;;
38693;SDS011;24447;43.460;25.744;2022-07-09T09:16:10;4.32;;;2.33;;
38693;SDS011;24447;43.460;25.744;2022-07-09T09:18:39;5.28;;;2.47;;
38693;SDS011;24447;43.460;25.744;2022-07-09T09:21:06;1.85;;;1.75;;
38693;SDS011;24447;43.460;25.744;2022-07-09T09:23:43;9.52;;;2.50;;
38693;SDS011;24447;43.460;25.744;2022-07-09T09:26:15;6.97;;;2.35;;
38693;SDS011;24447;43.460;25.744;2022-07-09T09:28:48;2.45;;;1.98;;
38693;SDS011;24447;43.460;25.744;2022-07-09T09:31:25;7.53;;;3.58;;
38693;SDS011;24447;43.460;25.744;2022-07-09T09:33:57;5.07;;;1.98;;
38693;SDS011;24447;43.460;25.744;2022-07-09T09:36:50;2.50;;;1.85;;
38693;SDS011;24447;43.460;25.744;2022-07-09T09:39:21;7.00;;;2.50;;
38693;SDS011;24447;43.460;25.744;2022-07-09T09:41:50;9.50;;;2.90;;
38693;SDS011;24447;43.460;25.744;2022-07-09T09:44:18;5.10;;;2.35;;
38693;SDS011;24447;43.460;25.744;2022-07-09T09:46:46;5.20;;;2.03;;
38693;SDS011;24447;43.460;25.744;2022-07-09T09:49:13;3.28;;;2.13;;
38693;SDS011;24447;43.460;25.744;2022-07-09T09:51:51;5.68;;;1.98;;
38693;SDS011;24447;43.460;25.744;2022-07-09T09:54:22;4.03;;;2.28;;
38693;SDS011;24447;43.460;25.744;2022-07-09T09:56:49;3.28;;;1.75;;
38693;SDS011;24447;43.460;25.744;2022-07-09T09:59:15;3.08;;;2.08;;
38693;SDS011;24447;43.460;25.744;2022-07-09T10:01:42;5.55;;;2.40;;
38693;SDS011;24447;43.460;25.744;2022-07-09T10:04:09;7.03;;;2.20;;
38693;SDS011;24447;43.460;25.744;2022-07-09T10:06:36;5.85;;;2.28;;
38693;SDS011;24447;43.460;25.744;2022-07-09T10:09:03;2.40;;;2.05;;
38693;SDS011;24447;43.460;25.744;2022-07-09T10:16:49;9.35;;;2.25;;
38693;SDS011;24447;43.460;25.744;2022-07-09T10:19:25;4.70;;;1.95;;
38693;SDS011;24447;43.460;25.744;2022-07-09T10:21:53;9.85;;;3.13;;
38693;SDS011;24447;43.460;25.744;2022-07-09T10:24:27;7.65;;;2.38;;
38693;SDS011;24447;43.460;25.744;2022-07-09T10:27:04;4.72;;;2.72;;
38693;SDS011;24447;43.460;25.744;2022-07-09T10:29:31;3.58;;;2.20;;
38693;SDS011;24447;43.460;25.744;2022-07-09T10:31:57;7.53;;;2.72;;
38693;SDS011;24447;43.460;25.744;2022-07-09T10:42:43;5.22;;;2.42;;
38693;SDS011;24447;43.460;25.744;2022-07-09T10:45:23;12.13;;;3.15;;
38693;SDS011;24447;43.460;25.744;2022-07-09T10:47:53;7.85;;;2.65;;
38693;SDS011;24447;43.460;25.744;2022-07-09T10:50:20;10.05;;;2.90;;
38693;SDS011;24447;43.460;25.744;2022-07-09T10:52:46;11.15;;;2.45;;
38693;SDS011;24447;43.460;25.744;2022-07-09T10:55:14;10.15;;;2.55;;
38693;SDS011;24447;43.460;25.744;2022-07-09T10:57:41;7.18;;;2.78;;
38693;SDS011;24447;43.460;25.744;2022-07-09T11:00:07;5.50;;;2.70;;
38693;SDS011;24447;43.460;25.744;2022-07-09T11:02:35;5.47;;;2.15;;
38693;SDS011;24447;43.460;25.744;2022-07-09T11:05:01;10.15;;;2.60;;
38693;SDS011;24447;43.460;25.744;2022-07-09T11:07:27;5.55;;;2.78;;
38693;SDS011;24447;43.460;25.744;2022-07-09T11:09:54;5.45;;;2.38;;
38693;SDS011;24447;43.460;25.744;2022-07-09T11:12:21;4.28;;;2.70;;
38693;SDS011;24447;43.460;25.744;2022-07-09T11:14:48;9.32;;;2.30;;
38693;SDS011;24447;43.460;25.744;2022-07-09T11:17:18;4.10;;;2.35;;
38693;SDS011;24447;43.460;25.744;2022-07-09T11:19:46;6.35;;;2.60;;
38693;SDS011;24447;43.460;25.744;2022-07-09T11:22:17;2.83;;;2.13;;
38693;SDS011;24447;43.460;25.744;2022-07-09T11:24:43;3.10;;;2.10;;
38693;SDS011;24447;43.460;25.744;2022-07-09T11:27:09;6.88;;;2.20;;
38693;SDS011;24447;43.460;25.744;2022-07-09T11:29:35;6.03;;;2.55;;
38693;SDS011;24447;43.460;25.744;2022-07-09T11:32:02;6.10;;;2.15;;
38693;SDS011;24447;43.460;25.744;2022-07-09T11:34:28;8.00;;;2.83;;
38693;SDS011;24447;43.460;25.744;2022-07-09T11:36:56;10.75;;;2.42;;
38693;SDS011;24447;43.460;25.744;2022-07-09T11:39:30;3.75;;;2.30;;
38693;SDS011;24447;43.460;25.744;2022-07-09T11:41:59;3.72;;;2.15;;
38693;SDS011;24447;43.460;25.744;2022-07-09T11:44:30;5.88;;;1.90;;
38693;SDS011;24447;43.460;25.744;2022-07-09T11:49:46;4.70;;;2.15;;
38693;SDS011;24447;43.460;25.744;2022-07-09T11:52:17;7.03;;;2.35;;
38693;SDS011;24447;43.460;25.744;2022-07-09T11:57:30;7.57;;;2.47;;
38693;SDS011;24447;43.460;25.744;2022-07-09T11:59:57;5.82;;;2.10;;
38693;SDS011;24447;43.460;25.744;2022-07-09T12:02:24;4.75;;;2.28;;
38693;SDS011;24447;43.460;25.744;2022-07-09T12:04:50;8.05;;;2.60;;
38693;SDS011;24447;43.460;25.744;2022-07-09T12:07:16;4.35;;;2.50;;
38693;SDS011;24447;43.460;25.744;2022-07-09T12:09:42;11.68;;;2.47;;
38693;SDS011;24447;43.460;25.744;2022-07-09T12:12:08;9.20;;;2.28;;
38693;SDS011;24447;43.460;25.744;2022-07-09T12:14:34;5.25;;;2.30;;
38693;SDS011;24447;43.460;25.744;2022-07-09T12:17:00;9.50;;;2.08;;
38693;SDS011;24447;43.460;25.744;2022-07-09T12:19:26;4.38;;;2.30;;
38693;SDS011;24447;43.460;25.744;2022-07-09T12:21:52;4.25;;;2.40;;
38693;SDS011;24447;43.460;25.744;2022-07-09T12:24:18;2.25;;;2.08;;
38693;SDS011;24447;43.460;25.744;2022-07-09T12:26:44;5.72;;;2.65;;
38693;SDS011;24447;43.460;25.744;2022-07-09T12:29:10;8.55;;;2.47;;
38693;SDS011;24447;43.460;25.744;2022-07-09T12:31:36;3.85;;;2.30;;
38693;SDS011;24447;43.460;25.744;2022-07-09T12:34:03;5.47;;;2.70;;
38693;SDS011;24447;43.460;25.744;2022-07-09T12:36:30;9.38;;;2.35;;
38693;SDS011;24447;43.460;25.744;2022-07-09T12:38:57;12.07;;;2.90;;
38693;SDS011;24447;43.460;25.744;2022-07-09T12:41:23;7.85;;;2.97;;
38693;SDS011;24447;43.460;25.744;2022-07-09T12:43:49;8.65;;;2.63;;
38693;SDS011;24447;43.460;25.744;2022-07-09T12:46:15;6.95;;;2.70;;
38693;SDS011;24447;43.460;25.744;2022-07-09T12:48:40;5.55;;;2.30;;
38693;SDS011;24447;43.460;25.744;2022-07-09T12:51:06;12.52;;;2.90;;
38693;SDS011;24447;43.460;25.744;2022-07-09T12:53:32;9.60;;;2.97;;
38693;SDS011;24447;43.460;25.744;2022-07-09T12:55:58;5.97;;;2.30;;
38693;SDS011;24447;43.460;25.744;2022-07-09T12:58:24;6.55;;;2.53;;
38693;SDS011;24447;43.460;25.744;2022-07-09T13:00:50;9.23;;;3.20;;
38693;SDS011;24447;43.460;25.744;2022-07-09T13:03:16;5.85;;;2.20;;
38693;SDS011;24447;43.460;25.744;2022-07-09T13:05:42;6.72;;;2.20;;
38693;SDS011;24447;43.460;25.744;2022-07-09T13:08:08;7.47;;;2.55;;
38693;SDS011;24447;43.460;25.744;2022-07-09T13:10:34;6.70;;;2.85;;
38693;SDS011;24447;43.460;25.744;2022-07-09T13:13:00;6.47;;;2.78;;
38693;SDS011;24447;43.460;25.744;2022-07-09T13:15:26;11.20;;;2.85;;
38693;SDS011;24447;43.460;25.744;2022-07-09T13:17:52;4.68;;;2.63;;
38693;SDS011;24447;43.460;25.744;2022-07-09T13:20:17;5.10;;;2.58;;
38693;SDS011;24447;43.460;25.744;2022-07-09T13:22:43;7.32;;;2.88;;
38693;SDS011;24447;43.460;25.744;2022-07-09T13:25:09;6.45;;;2.50;;
38693;SDS011;24447;43.460;25.744;2022-07-09T13:27:35;7.50;;;2.40;;
38693;SDS011;24447;43.460;25.744;2022-07-09T13:30:01;4.65;;;2.65;;
38693;SDS011;24447;43.460;25.744;2022-07-09T13:32:28;10.32;;;3.00;;
38693;SDS011;24447;43.460;25.744;2022-07-09T13:34:54;4.30;;;2.90;;
38693;SDS011;24447;43.460;25.744;2022-07-09T13:37:20;7.70;;;2.78;;
38693;SDS011;24447;43.460;25.744;2022-07-09T13:39:46;9.07;;;2.67;;
38693;SDS011;24447;43.460;25.744;2022-07-09T13:42:13;5.45;;;2.33;;
38693;SDS011;24447;43.460;25.744;2022-07-09T13:44:39;6.30;;;2.70;;
38693;SDS011;24447;43.460;25.744;2022-07-09T13:47:05;6.00;;;2.90;;
38693;SDS011;24447;43.460;25.744;2022-07-09T13:49:31;6.85;;;3.17;;
38693;SDS011;24447;43.460;25.744;2022-07-09T13:51:57;5.82;;;2.97;;
38693;SDS011;24447;43.460;25.744;2022-07-09T13:54:23;5.57;;;2.42;;
38693;SDS011;24447;43.460;25.744;2022-07-09T13:56:49;6.45;;;2.83;;
38693;SDS011;24447;43.460;25.744;2022-07-09T13:59:15;6.07;;;3.05;;
38693;SDS011;24447;43.460;25.744;2022-07-09T14:01:40;8.18;;;2.75;;
38693;SDS011;24447;43.460;25.744;2022-07-09T14:04:06;5.95;;;2.60;;
38693;SDS011;24447;43.460;25.744;2022-07-09T14:06:32;4.40;;;2.33;;
38693;SDS011;24447;43.460;25.744;2022-07-09T14:08:58;6.93;;;2.70;;
38693;SDS011;24447;43.460;25.744;2022-07-09T14:11:24;9.00;;;3.22;;
38693;SDS011;24447;43.460;25.744;2022-07-09T14:13:50;5.05;;;2.45;;
38693;SDS011;24447;43.460;25.744;2022-07-09T14:16:18;4.93;;;2.78;;
38693;SDS011;24447;43.460;25.744;2022-07-09T14:18:44;5.68;;;2.30;;
38693;SDS011;24447;43.460;25.744;2022-07-09T14:21:10;4.65;;;2.35;;
38693;SDS011;24447;43.460;25.744;2022-07-09T14:23:36;3.63;;;2.50;;
38693;SDS011;24447;43.460;25.744;2022-07-09T14:26:02;4.72;;;2.78;;
38693;SDS011;24447;43.460;25.744;2022-07-09T14:28:28;10.73;;;2.80;;
38693;SDS011;24447;43.460;25.744;2022-07-09T14:30:54;5.93;;;2.90;;
38693;SDS011;24447;43.460;25.744;2022-07-09T14:33:20;5.07;;;3.58;;
38693;SDS011;24447;43.460;25.744;2022-07-09T14:35:46;4.88;;;2.63;;
38693;SDS011;24447;43.460;25.744;2022-07-09T14:38:12;6.00;;;2.20;;
38693;SDS011;24447;43.460;25.744;2022-07-09T14:40:38;2.67;;;2.42;;
38693;SDS011;24447;43.460;25.744;2022-07-09T14:43:04;13.75;;;3.53;;
38693;SDS011;24447;43.460;25.744;2022-07-09T14:45:31;6.03;;;3.13;;
38693;SDS011;24447;43.460;25.744;2022-07-09T14:47:57;6.32;;;3.22;;
38693;SDS011;24447;43.460;25.744;2022-07-09T14:50:23;8.70;;;2.80;;
38693;SDS011;24447;43.460;25.744;2022-07-09T14:52:49;6.63;;;3.22;;
38693;SDS011;24447;43.460;25.744;2022-07-09T14:55:15;7.85;;;3.25;;
38693;SDS011;24447;43.460;25.744;2022-07-09T14:57:41;6.63;;;3.05;;